ETHB

Bückeburg Air Base

Airport
ICAO code
ETHB
Summary
ICAO Region
EUR
ICAO Territory
Location

Bückeburg, Lower Saxony,

Coordinates
52° 16' 42" N , 9° 4' 55" E
Metar
ETHB 190420Z 24013KT 9000 -RA SCT010 BKN014 OVC025 05/04 Q1007 GRN WHT TEMPO GRN

Description

Bückeburg Air Base is located northeast of the city of Bückeburg, Lower Saxony, Germany.

Runways

Designator Length Width Surface Rops
8/26 1832 45 ASP No/No

Airport map

Aerial View

SKYbrary Partners:

Safety knowledge contributed by: